createdAt,value
2022-08-26T00:10:18.430Z,3.57
2022-08-26T00:12:45.960Z,3.10
2022-08-26T00:15:17.035Z,3.40
2022-08-26T00:18:21.919Z,3.33
2022-08-26T00:24:49.625Z,3.43
2022-08-26T00:31:17.040Z,3.77
2022-08-26T00:33:44.677Z,3.63
2022-08-26T00:36:19.930Z,3.40
2022-08-26T00:43:29.974Z,3.57
2022-08-26T00:46:30.260Z,3.37
2022-08-26T00:53:12.289Z,3.60
2022-08-26T00:55:45.661Z,3.60
2022-08-26T00:58:13.202Z,3.77
2022-08-26T01:04:37.009Z,4.20
2022-08-26T01:08:01.772Z,3.97
2022-08-26T01:10:31.669Z,4.40
2022-08-26T01:22:00.217Z,4.30
2022-08-26T01:24:30.292Z,4.23
2022-08-26T01:27:33.607Z,4.20
2022-08-26T01:30:05.146Z,4.47
2022-08-26T01:36:30.952Z,3.93
2022-08-26T01:42:50.138Z,4.10
2022-08-26T01:46:07.892Z,4.20
2022-08-26T01:48:39.400Z,4.13
2022-08-26T01:55:32.167Z,4.00
2022-08-26T02:14:48.028Z,3.73
2022-08-26T02:17:23.756Z,4.17
2022-08-26T02:19:51.475Z,3.60
2022-08-26T02:22:22.325Z,3.77
2022-08-26T02:25:09.860Z,3.60
2022-08-26T02:31:36.952Z,3.47
2022-08-26T02:35:00.533Z,3.50
2022-08-26T02:37:31.638Z,3.63
2022-08-26T02:44:34.148Z,3.70
2022-08-26T02:55:12.037Z,4.23
2022-08-26T03:05:58.353Z,3.50
2022-08-26T03:08:25.564Z,3.50
2022-08-26T03:10:52.980Z,3.30
2022-08-26T03:17:29.940Z,3.37
2022-08-26T03:19:57.829Z,3.53
2022-08-26T03:22:26.296Z,3.17
2022-08-26T03:24:54.776Z,3.30
2022-08-26T03:27:22.389Z,3.17
2022-08-26T03:29:49.934Z,3.40
2022-08-26T03:32:18.162Z,3.60
2022-08-26T03:34:45.906Z,3.57
2022-08-26T03:37:14.722Z,3.40
2022-08-26T03:39:42.499Z,3.47
2022-08-26T03:46:06.166Z,3.63
2022-08-26T03:48:34.026Z,3.30
2022-08-26T03:54:43.574Z,3.33
2022-08-26T03:57:11.064Z,3.73
2022-08-26T03:59:38.689Z,3.50
2022-08-26T04:02:11.760Z,3.63
2022-08-26T04:12:03.604Z,5.00
2022-08-26T04:14:31.184Z,5.80
2022-08-26T04:20:50.992Z,3.80
2022-08-26T04:31:01.978Z,4.33
2022-08-26T04:33:32.412Z,3.80
2022-08-26T04:36:14.325Z,3.67
2022-08-26T04:38:43.313Z,4.13
2022-08-26T04:45:05.911Z,6.07
2022-08-26T04:47:38.162Z,5.77
2022-08-26T04:53:47.355Z,5.50
2022-08-26T04:56:15.086Z,5.27
2022-08-26T04:58:42.632Z,4.67
2022-08-26T05:05:01.440Z,4.10
2022-08-26T05:07:44.671Z,3.80
2022-08-26T05:10:12.571Z,3.93
2022-08-26T05:12:55.301Z,4.10
2022-08-26T05:15:23.879Z,4.70
2022-08-26T05:17:51.417Z,4.80
2022-08-26T05:20:22.615Z,4.80
2022-08-26T05:22:53.266Z,4.60
2022-08-26T05:25:21.206Z,4.60
2022-08-26T05:27:48.814Z,4.53
2022-08-26T05:30:16.444Z,4.67
2022-08-26T05:32:44.149Z,4.60
2022-08-26T05:35:11.781Z,4.90
2022-08-26T05:37:39.376Z,4.80
2022-08-26T05:40:07.495Z,5.10
2022-08-26T05:42:36.021Z,4.80
2022-08-26T05:45:04.306Z,5.30
2022-08-26T05:47:32.052Z,4.87
2022-08-26T05:49:59.977Z,4.43
2022-08-26T05:52:27.585Z,4.30
2022-08-26T05:54:55.685Z,5.13
2022-08-26T05:57:23.290Z,5.63
2022-08-26T05:59:51.537Z,6.60
2022-08-26T06:02:19.089Z,6.37
2022-08-26T06:04:46.988Z,6.30
2022-08-26T06:07:14.584Z,6.63
2022-08-26T06:09:42.436Z,6.80
2022-08-26T06:12:10.220Z,8.27
2022-08-26T06:14:37.804Z,7.53
2022-08-26T06:17:05.393Z,6.50
2022-08-26T06:19:34.429Z,6.33
2022-08-26T06:22:02.171Z,6.67
2022-08-26T06:24:29.807Z,6.37
2022-08-26T06:27:01.356Z,5.60
2022-08-26T06:29:31.900Z,6.03
2022-08-26T06:31:59.822Z,5.57
2022-08-26T06:34:30.399Z,5.77
2022-08-26T06:37:04.039Z,5.57
2022-08-26T06:39:34.278Z,6.53
2022-08-26T06:42:02.930Z,6.30
2022-08-26T06:44:30.966Z,5.57
2022-08-26T06:47:00.282Z,5.33
2022-08-26T06:49:28.029Z,5.17
2022-08-26T06:51:56.845Z,5.10
2022-08-26T06:54:26.424Z,4.83
2022-08-26T06:56:54.190Z,4.70
2022-08-26T06:59:21.697Z,5.00
2022-08-26T07:01:49.747Z,4.63
2022-08-26T07:04:21.899Z,4.67
2022-08-26T07:06:52.802Z,4.57
2022-08-26T07:09:23.420Z,4.50
2022-08-26T07:11:52.254Z,4.60
2022-08-26T07:14:21.505Z,4.77
2022-08-26T07:16:52.857Z,4.43
2022-08-26T07:19:29.883Z,4.43
2022-08-26T07:22:03.445Z,4.50
2022-08-26T07:24:32.794Z,4.67
2022-08-26T07:27:07.047Z,4.30
2022-08-26T07:29:37.190Z,4.30
2022-08-26T07:32:05.332Z,4.10
2022-08-26T07:38:14.220Z,4.13
2022-08-26T07:44:23.414Z,4.00
2022-08-26T07:46:52.102Z,4.07
2022-08-26T07:49:22.081Z,3.90
2022-08-26T07:51:50.046Z,4.30
2022-08-26T07:54:17.728Z,4.37
2022-08-26T08:00:59.178Z,4.20
2022-08-26T08:03:27.443Z,4.13
2022-08-26T08:05:55.056Z,4.37
2022-08-26T08:08:27.608Z,4.53
2022-08-26T08:14:37.730Z,4.50
2022-08-26T08:20:59.063Z,4.17
2022-08-26T08:23:33.715Z,3.87
2022-08-26T08:26:11.562Z,4.27
2022-08-26T08:28:39.996Z,4.40
2022-08-26T08:35:00.181Z,4.00
2022-08-26T08:37:27.667Z,4.13
2022-08-26T08:39:55.633Z,4.40
2022-08-26T08:42:43.964Z,3.70
2022-08-26T08:45:42.053Z,4.33
2022-08-26T08:52:40.685Z,3.93
2022-08-26T08:59:19.354Z,3.73
2022-08-26T09:02:33.370Z,4.13
2022-08-26T09:09:32.907Z,3.90
2022-08-26T09:16:37.370Z,4.32
2022-08-26T09:19:25.520Z,4.50
2022-08-26T09:22:02.873Z,4.10
2022-08-26T09:24:41.979Z,3.80
2022-08-26T09:31:25.830Z,4.00
2022-08-26T09:34:31.000Z,3.75
2022-08-26T09:37:00.872Z,4.10
2022-08-26T09:39:38.311Z,4.32
2022-08-26T09:42:19.002Z,3.95
2022-08-26T09:44:55.685Z,3.80
2022-08-26T09:47:31.994Z,3.70
2022-08-26T09:50:23.469Z,4.00
2022-08-26T09:53:30.343Z,4.13
2022-08-26T10:00:00.287Z,3.75
2022-08-26T10:10:44.656Z,3.63
2022-08-26T10:13:33.176Z,3.40
2022-08-26T10:16:16.792Z,3.15
2022-08-26T10:19:05.726Z,2.90
2022-08-26T10:21:42.824Z,3.13
2022-08-26T10:24:20.484Z,3.10
2022-08-26T10:27:05.641Z,2.97
2022-08-26T10:29:47.071Z,3.08
2022-08-26T10:32:36.360Z,2.80
2022-08-26T10:43:31.311Z,3.22
2022-08-26T10:46:08.641Z,2.70
2022-08-26T10:48:52.502Z,2.97
2022-08-26T10:59:58.426Z,2.40
2022-08-26T11:06:18.334Z,2.88
2022-08-26T11:13:05.021Z,2.80
2022-08-26T11:15:32.186Z,2.67
2022-08-26T11:18:05.218Z,2.67
2022-08-26T11:25:06.448Z,2.78
2022-08-26T11:35:54.067Z,3.15
2022-08-26T11:46:31.117Z,2.80
2022-08-26T11:49:06.614Z,3.22
2022-08-26T11:51:40.069Z,2.97
2022-08-26T11:54:30.702Z,3.22
2022-08-26T11:57:11.654Z,2.92
2022-08-26T11:59:41.787Z,3.17
2022-08-26T12:06:30.418Z,3.10
2022-08-26T12:09:02.443Z,2.95
2022-08-26T12:15:39.603Z,3.20
2022-08-26T12:18:29.150Z,3.35
2022-08-26T12:21:00.912Z,3.17
2022-08-26T12:23:31.336Z,3.15
2022-08-26T12:26:26.933Z,2.97
2022-08-26T12:33:14.164Z,2.92
2022-08-26T12:40:25.412Z,3.00
2022-08-26T12:42:53.851Z,3.08
2022-08-26T12:45:38.034Z,3.38
2022-08-26T12:48:26.016Z,3.50
2022-08-26T12:54:56.739Z,3.30
2022-08-26T12:57:30.834Z,3.03
2022-08-26T13:00:23.137Z,3.10
2022-08-26T13:02:56.974Z,2.92
2022-08-26T13:05:32.873Z,2.90
2022-08-26T13:08:25.206Z,2.75
2022-08-26T13:11:12.282Z,2.90
2022-08-26T13:13:40.324Z,2.63
2022-08-26T13:20:30.932Z,2.65
2022-08-26T13:22:59.383Z,2.95
2022-08-26T13:25:27.082Z,2.42
2022-08-26T13:27:54.652Z,2.70
2022-08-26T13:34:04.668Z,3.20
2022-08-26T13:36:31.911Z,2.72
2022-08-26T13:38:59.145Z,3.10
2022-08-26T13:46:41.551Z,2.92
2022-08-26T13:49:14.426Z,2.70
2022-08-26T13:51:41.881Z,2.60
2022-08-26T13:54:09.342Z,3.60
2022-08-26T13:56:36.767Z,2.88
2022-08-26T13:59:06.549Z,3.00
2022-08-26T14:01:35.813Z,3.08
2022-08-26T14:04:03.446Z,2.97
2022-08-26T14:10:40.449Z,2.92
2022-08-26T14:13:08.114Z,3.63
2022-08-26T14:15:37.931Z,3.30
2022-08-26T14:18:13.110Z,3.10
2022-08-26T14:20:50.553Z,3.70
2022-08-26T14:23:17.943Z,2.70
2022-08-26T14:25:45.236Z,3.00
2022-08-26T14:28:12.564Z,3.20
2022-08-26T14:34:50.121Z,3.20
2022-08-26T14:37:17.575Z,3.45
2022-08-26T14:39:46.184Z,3.65
2022-08-26T14:46:24.160Z,3.15
2022-08-26T14:48:51.436Z,3.00
2022-08-26T14:51:50.351Z,2.78
2022-08-26T14:54:18.525Z,2.88
2022-08-26T14:57:08.348Z,3.28
2022-08-26T15:00:25.073Z,3.20
2022-08-26T15:02:56.326Z,2.85
2022-08-26T15:05:23.978Z,3.15
2022-08-26T15:07:54.326Z,3.25
2022-08-26T15:10:23.351Z,3.00
2022-08-26T15:16:54.912Z,2.85
2022-08-26T15:19:24.422Z,2.85
2022-08-26T15:21:52.297Z,2.72
2022-08-26T15:24:23.366Z,3.30
2022-08-26T15:26:51.681Z,3.00
2022-08-26T15:29:19.725Z,3.30
2022-08-26T15:31:47.842Z,2.90
2022-08-26T15:34:17.244Z,3.10
2022-08-26T15:36:47.432Z,2.97
2022-08-26T15:39:16.910Z,3.53
2022-08-26T15:41:44.756Z,3.30
2022-08-26T15:44:13.728Z,4.30
2022-08-26T15:46:41.691Z,3.40
2022-08-26T15:49:09.544Z,3.63
2022-08-26T15:51:46.246Z,3.92
2022-08-26T15:54:15.298Z,3.70
2022-08-26T15:56:43.594Z,3.75
2022-08-26T16:02:45.459Z,3.42
2022-08-26T16:08:55.542Z,3.40
2022-08-26T16:15:04.484Z,3.17
2022-08-26T16:21:22.530Z,3.30
2022-08-26T16:23:50.526Z,3.25
2022-08-26T16:30:10.522Z,2.60
2022-08-26T16:32:38.101Z,3.35
2022-08-26T16:35:06.349Z,3.42
2022-08-26T16:41:29.148Z,2.90
2022-08-26T16:43:57.217Z,2.63
2022-08-26T16:50:22.222Z,2.63
2022-08-26T16:52:54.273Z,2.63
2022-08-26T16:55:25.025Z,2.97
2022-08-26T16:57:52.926Z,2.92
2022-08-26T17:00:30.313Z,2.90
2022-08-26T17:02:59.628Z,2.25
2022-08-26T17:05:28.906Z,2.70
2022-08-26T17:07:58.843Z,2.67
2022-08-26T17:14:10.393Z,2.25
2022-08-26T17:17:09.946Z,2.35
2022-08-26T17:19:47.371Z,2.30
2022-08-26T17:22:15.648Z,2.60
2022-08-26T17:24:43.445Z,2.13
2022-08-26T17:27:11.447Z,2.17
2022-08-26T17:29:39.372Z,2.63
2022-08-26T17:32:07.041Z,2.53
2022-08-26T17:34:34.745Z,2.40
2022-08-26T17:37:02.353Z,2.65
2022-08-26T17:39:30.017Z,2.28
2022-08-26T17:41:59.192Z,2.50
2022-08-26T17:44:26.883Z,2.55
2022-08-26T17:46:54.542Z,2.72
2022-08-26T17:49:22.153Z,2.53
2022-08-26T17:51:50.826Z,2.50
2022-08-26T17:54:18.511Z,2.50
2022-08-26T17:56:49.232Z,2.80
2022-08-26T17:59:17.461Z,2.70
2022-08-26T18:01:45.724Z,2.80
2022-08-26T18:04:14.968Z,2.70
2022-08-26T18:06:42.917Z,2.53
2022-08-26T18:09:10.932Z,2.78
2022-08-26T18:11:40.202Z,2.90
2022-08-26T18:14:08.062Z,2.80
2022-08-26T18:16:36.096Z,2.63
2022-08-26T18:19:04.928Z,2.47
2022-08-26T18:21:33.683Z,2.90
2022-08-26T18:24:01.485Z,2.60
2022-08-26T18:26:41.212Z,2.92
2022-08-26T18:29:11.564Z,3.07
2022-08-26T18:31:39.322Z,2.80
2022-08-26T18:34:15.693Z,3.00
2022-08-26T18:36:44.606Z,2.60
2022-08-26T18:39:17.550Z,2.97
2022-08-26T18:41:51.287Z,3.27
2022-08-26T18:44:23.957Z,3.40
2022-08-26T18:47:00.565Z,3.50
2022-08-26T18:49:31.990Z,3.25
2022-08-26T18:51:59.779Z,3.30
2022-08-26T18:54:28.715Z,3.13
2022-08-26T18:56:56.349Z,3.10
2022-08-26T18:59:26.854Z,3.40
2022-08-26T19:01:58.204Z,3.30
2022-08-26T19:04:26.234Z,3.07
2022-08-26T19:06:53.825Z,3.10
2022-08-26T19:09:21.502Z,3.07
2022-08-26T19:11:49.840Z,3.30
2022-08-26T19:14:18.809Z,3.10
2022-08-26T19:16:49.001Z,3.03
2022-08-26T19:19:16.932Z,3.42
2022-08-26T19:21:44.629Z,3.00
2022-08-26T19:24:15.461Z,3.73
2022-08-26T19:26:45.281Z,2.90
2022-08-26T19:29:14.175Z,3.80
2022-08-26T19:31:41.967Z,2.97
2022-08-26T19:34:24.670Z,3.80
2022-08-26T19:36:53.227Z,2.93
2022-08-26T19:39:22.495Z,2.90
2022-08-26T19:41:50.303Z,3.40
2022-08-26T19:44:19.988Z,3.20
2022-08-26T19:46:47.218Z,3.13
2022-08-26T19:49:14.535Z,3.30
2022-08-26T19:51:41.751Z,3.27
2022-08-26T19:54:08.916Z,3.20
2022-08-26T19:56:36.411Z,3.23
2022-08-26T19:59:03.788Z,3.70
2022-08-26T20:01:31.036Z,3.77
2022-08-26T20:03:58.352Z,3.20
2022-08-26T20:06:25.602Z,3.00
2022-08-26T20:08:53.880Z,2.80
2022-08-26T20:11:22.321Z,3.00
2022-08-26T20:13:49.582Z,3.17
2022-08-26T20:16:17.470Z,3.27
2022-08-26T20:18:45.586Z,2.93
2022-08-26T20:21:13.902Z,3.20
2022-08-26T20:23:41.523Z,3.10
2022-08-26T20:26:08.812Z,3.13
2022-08-26T20:28:36.209Z,3.10
2022-08-26T20:31:03.612Z,3.70
2022-08-26T20:33:45.983Z,3.50
2022-08-26T20:36:15.495Z,3.37
2022-08-26T20:38:43.161Z,3.90
2022-08-26T20:41:10.333Z,3.10
2022-08-26T20:43:37.667Z,3.27
2022-08-26T20:46:09.937Z,3.40
2022-08-26T20:48:45.644Z,3.43
2022-08-26T20:51:13.156Z,3.17
2022-08-26T20:53:40.566Z,3.10
2022-08-26T20:56:10.956Z,3.37
2022-08-26T20:58:38.839Z,3.27
2022-08-26T21:01:08.342Z,3.77
2022-08-26T21:03:36.844Z,3.40
2022-08-26T21:06:04.371Z,3.13
2022-08-26T21:08:33.060Z,3.30
2022-08-26T21:11:02.050Z,3.47
2022-08-26T21:13:42.917Z,3.57
2022-08-26T21:16:19.604Z,3.40
2022-08-26T21:18:47.625Z,3.07
2022-08-26T21:21:14.758Z,2.87
2022-08-26T21:23:41.960Z,3.00
2022-08-26T21:26:14.271Z,2.80
2022-08-26T21:28:44.291Z,3.53
2022-08-26T21:31:17.534Z,3.20
2022-08-26T21:33:45.183Z,3.10
2022-08-26T21:36:14.554Z,3.10
2022-08-26T21:38:42.394Z,3.30
2022-08-26T21:41:12.721Z,3.40
2022-08-26T21:43:42.152Z,3.50
2022-08-26T21:46:14.167Z,3.20
2022-08-26T21:48:48.744Z,3.37
2022-08-26T21:51:21.276Z,3.70
2022-08-26T21:53:49.758Z,6.10
2022-08-26T21:56:19.636Z,4.90
2022-08-26T21:58:46.922Z,4.03
2022-08-26T22:01:19.698Z,3.40
2022-08-26T22:03:49.148Z,3.23
2022-08-26T22:06:18.857Z,4.50
2022-08-26T22:08:46.438Z,5.90
2022-08-26T22:11:14.938Z,6.53
2022-08-26T22:13:43.793Z,5.47
2022-08-26T22:16:12.501Z,5.07
2022-08-26T22:18:40.783Z,5.47
2022-08-26T22:21:14.408Z,4.57
2022-08-26T22:23:41.918Z,4.40
2022-08-26T22:26:12.849Z,4.53
2022-08-26T22:28:40.335Z,4.70
2022-08-26T22:31:11.024Z,4.37
2022-08-26T22:33:40.929Z,4.80
2022-08-26T22:36:18.746Z,4.90
2022-08-26T22:38:47.411Z,4.87
2022-08-26T22:41:15.635Z,4.60
2022-08-26T22:43:42.800Z,5.10
2022-08-26T22:46:17.042Z,4.40
2022-08-26T22:48:44.525Z,4.63
2022-08-26T22:51:12.457Z,5.10
2022-08-26T22:53:41.534Z,4.33
2022-08-26T22:56:09.923Z,5.50
2022-08-26T22:58:37.440Z,5.10
2022-08-26T23:01:06.899Z,5.00
2022-08-26T23:03:35.362Z,5.40
2022-08-26T23:06:06.805Z,4.87
2022-08-26T23:08:34.135Z,5.63
2022-08-26T23:11:01.669Z,5.03
2022-08-26T23:13:28.922Z,4.67
2022-08-26T23:16:08.872Z,5.00
2022-08-26T23:18:37.104Z,5.20
2022-08-26T23:21:04.739Z,5.17
2022-08-26T23:23:33.271Z,4.93
2022-08-26T23:26:03.346Z,5.13
2022-08-26T23:28:36.088Z,4.53
2022-08-26T23:31:03.730Z,5.00
2022-08-26T23:33:31.182Z,4.80
2022-08-26T23:36:06.453Z,4.73
2022-08-26T23:38:33.610Z,4.70
2022-08-26T23:41:02.398Z,4.80
2022-08-26T23:47:28.992Z,4.60
2022-08-26T23:49:56.240Z,4.60
2022-08-26T23:56:33.528Z,4.87
2022-08-26T23:59:00.775Z,5.33
